createdAt,value
2019-02-15T00:01:58.350Z,78.30
2019-02-15T00:07:02.003Z,78.40
2019-02-15T00:12:06.003Z,79.90
2019-02-15T00:17:09.659Z,80.90
2019-02-15T00:22:13.317Z,80.20
2019-02-15T00:27:16.946Z,78.90
2019-02-15T00:32:20.528Z,79.70
2019-02-15T00:37:24.122Z,80.00
2019-02-15T00:42:27.781Z,80.90
2019-02-15T00:52:49.585Z,79.20
2019-02-15T00:58:09.759Z,83.80
2019-02-15T01:03:18.145Z,82.50
2019-02-15T01:08:26.615Z,81.30
2019-02-15T01:13:31.318Z,80.00
2019-02-15T01:18:35.051Z,78.20
2019-02-15T01:23:38.714Z,80.00
2019-02-15T01:28:55.886Z,79.60
2019-02-15T01:34:16.450Z,80.90
2019-02-15T01:39:38.087Z,83.10
2019-02-15T01:44:49.339Z,82.60
2019-02-15T01:49:53.017Z,82.90
2019-02-15T01:54:56.606Z,82.40
2019-02-15T02:00:00.246Z,80.50
2019-02-15T02:05:04.466Z,82.30
2019-02-15T02:10:10.381Z,80.80
2019-02-15T02:15:14.375Z,79.90
2019-02-15T02:20:17.966Z,80.30
2019-02-15T02:25:21.901Z,81.60
2019-02-15T02:30:25.663Z,81.40
2019-02-15T02:35:29.222Z,82.30
2019-02-15T02:40:32.822Z,81.80
2019-02-15T02:45:36.453Z,80.80
2019-02-15T02:50:40.034Z,82.80
2019-02-15T02:55:43.624Z,85.00
2019-02-15T03:00:47.281Z,82.90
2019-02-15T03:05:50.925Z,82.80
2019-02-15T03:10:54.512Z,82.40
2019-02-15T03:15:58.093Z,81.70
2019-02-15T03:21:02.076Z,82.10
2019-02-15T03:26:05.743Z,82.00
2019-02-15T03:31:09.401Z,82.40
2019-02-15T03:36:17.472Z,82.10
2019-02-15T03:41:28.494Z,82.00
2019-02-15T03:46:32.370Z,82.10
2019-02-15T03:51:36.018Z,81.40
2019-02-15T03:56:39.861Z,83.10
2019-02-15T04:01:43.574Z,82.50
2019-02-15T04:06:47.173Z,84.00
2019-02-15T04:11:50.745Z,85.00
2019-02-15T04:16:54.686Z,83.50
2019-02-15T04:21:58.642Z,81.90
2019-02-15T04:27:02.231Z,83.00
2019-02-15T04:32:05.822Z,84.90
2019-02-15T04:37:09.827Z,86.00
2019-02-15T04:42:13.411Z,83.90
2019-02-15T04:47:17.384Z,84.70
2019-02-15T04:52:21.304Z,84.50
2019-02-15T04:57:24.911Z,84.20
2019-02-15T05:02:28.479Z,83.90
2019-02-15T05:07:32.144Z,83.80
2019-02-15T05:12:35.725Z,83.80
2019-02-15T05:17:39.382Z,82.80
2019-02-15T05:22:42.986Z,83.80
2019-02-15T05:27:46.562Z,83.90
2019-02-15T05:32:50.146Z,83.30
2019-02-15T05:37:54.102Z,83.40
2019-02-15T05:42:58.006Z,83.60
2019-02-15T05:48:01.589Z,84.00
2019-02-15T05:53:05.594Z,83.30
2019-02-15T05:58:09.183Z,83.60
2019-02-15T06:03:13.811Z,83.80
2019-02-15T06:08:17.561Z,82.80
2019-02-15T06:13:21.606Z,83.00
2019-02-15T06:18:25.189Z,83.50
2019-02-15T06:23:28.791Z,82.10
2019-02-15T06:28:32.368Z,82.80
2019-02-15T06:33:36.035Z,83.20
2019-02-15T06:38:39.994Z,80.20
2019-02-15T06:43:43.593Z,81.60
2019-02-15T06:48:47.548Z,84.50
2019-02-15T06:53:51.138Z,83.00
2019-02-15T06:58:59.139Z,82.20
2019-02-15T07:04:04.358Z,83.00
2019-02-15T07:09:08.317Z,83.50
2019-02-15T07:14:11.900Z,82.70
2019-02-15T07:19:15.553Z,81.80
2019-02-15T07:24:19.152Z,81.50
2019-02-15T07:29:22.764Z,81.50
2019-02-15T07:34:26.341Z,81.50
2019-02-15T07:39:29.945Z,82.80
2019-02-15T07:44:33.582Z,83.40
2019-02-15T07:49:37.494Z,81.30
2019-02-15T07:54:41.427Z,81.00
2019-02-15T07:59:45.013Z,82.20
2019-02-15T08:04:48.598Z,82.30
2019-02-15T08:09:52.190Z,81.30
2019-02-15T08:14:55.844Z,81.70
2019-02-15T08:19:59.429Z,79.50
2019-02-15T08:25:03.369Z,76.20
2019-02-15T08:30:10.195Z,73.70
2019-02-15T08:35:15.757Z,71.20
2019-02-15T08:40:19.346Z,67.20
2019-02-15T08:45:22.934Z,63.10
2019-02-15T08:50:26.593Z,60.70
2019-02-15T08:55:30.174Z,57.30
2019-02-15T09:00:33.822Z,56.40
2019-02-15T09:05:37.422Z,55.70
2019-02-15T09:10:41.388Z,53.00
2019-02-15T09:15:45.389Z,51.60
2019-02-15T09:20:49.066Z,51.90
2019-02-15T09:25:53.082Z,49.00
2019-02-15T09:30:56.745Z,47.20
2019-02-15T09:36:00.337Z,45.30
2019-02-15T09:41:04.026Z,44.10
2019-02-15T09:46:07.689Z,42.60
2019-02-15T09:51:11.277Z,41.00
2019-02-15T09:56:14.864Z,39.20
2019-02-15T10:01:18.527Z,37.80
2019-02-15T10:06:22.534Z,36.30
2019-02-15T10:11:26.150Z,33.60
2019-02-15T10:16:31.418Z,33.50
2019-02-15T10:21:35.155Z,33.20
2019-02-15T10:26:39.149Z,29.90
2019-02-15T10:31:43.078Z,28.80
2019-02-15T10:36:46.670Z,28.20
2019-02-15T10:41:50.408Z,28.00
2019-02-15T10:46:54.024Z,27.80
2019-02-15T10:51:58.006Z,28.30
2019-02-15T10:57:01.939Z,27.50
2019-02-15T11:02:06.143Z,27.00
2019-02-15T11:07:09.733Z,26.10
2019-02-15T11:12:13.728Z,26.60
2019-02-15T11:17:17.387Z,27.20
2019-02-15T11:22:21.049Z,27.00
2019-02-15T11:27:24.723Z,27.80
2019-02-15T11:32:28.380Z,27.70
2019-02-15T11:37:31.974Z,27.60
2019-02-15T11:42:35.565Z,27.60
2019-02-15T11:47:39.229Z,27.60
2019-02-15T11:52:42.898Z,28.60
2019-02-15T11:57:46.494Z,28.60
2019-02-15T12:02:50.457Z,27.30
2019-02-15T12:07:54.050Z,27.40
2019-02-15T12:12:58.111Z,26.50
2019-02-15T12:18:01.769Z,25.00
2019-02-15T12:23:05.436Z,24.40
2019-02-15T12:28:09.175Z,24.50
2019-02-15T12:33:13.110Z,25.40
2019-02-15T12:38:16.710Z,24.10
2019-02-15T12:43:20.309Z,23.50
2019-02-15T12:48:24.239Z,22.60
2019-02-15T12:53:28.323Z,21.90
2019-02-15T12:58:31.909Z,21.10
2019-02-15T13:03:35.838Z,20.10
2019-02-15T13:08:39.818Z,21.10
2019-02-15T13:13:43.409Z,19.50
2019-02-15T13:18:47.005Z,20.50
2019-02-15T13:23:50.671Z,20.10
2019-02-15T13:28:54.881Z,20.80
2019-02-15T13:33:58.831Z,20.60
2019-02-15T13:39:02.502Z,20.60
2019-02-15T13:44:06.186Z,20.80
2019-02-15T13:49:09.795Z,21.10
2019-02-15T13:54:13.386Z,21.80
2019-02-15T13:59:17.320Z,21.40
2019-02-15T14:04:21.061Z,22.20
2019-02-15T14:09:25.133Z,22.20
2019-02-15T14:14:29.251Z,23.10
2019-02-15T14:19:32.830Z,23.10
2019-02-15T14:24:36.429Z,23.80
2019-02-15T14:29:40.413Z,24.20
2019-02-15T14:34:44.075Z,24.80
2019-02-15T14:39:47.668Z,26.20
2019-02-15T14:44:51.267Z,26.00
2019-02-15T14:49:55.004Z,26.60
2019-02-15T14:54:58.944Z,25.60
2019-02-15T15:00:02.613Z,26.90
2019-02-15T15:05:07.042Z,26.70
2019-02-15T15:10:11.578Z,27.40
2019-02-15T15:15:18.152Z,28.30
2019-02-15T15:20:22.035Z,28.10
2019-02-15T15:25:25.705Z,28.80
2019-02-15T15:30:29.302Z,29.00
2019-02-15T15:35:32.926Z,29.30
2019-02-15T15:40:36.509Z,30.20
2019-02-15T15:45:40.117Z,32.10
2019-02-15T15:50:44.169Z,32.80
2019-02-15T15:55:47.840Z,35.00
2019-02-15T16:00:51.500Z,37.90
2019-02-15T16:05:55.098Z,40.80
2019-02-15T16:10:58.830Z,44.20
2019-02-15T16:16:02.835Z,46.20
2019-02-15T16:21:06.421Z,48.50
2019-02-15T16:26:10.022Z,49.30
2019-02-15T16:31:13.617Z,50.80
2019-02-15T16:36:17.219Z,52.60
2019-02-15T16:41:20.978Z,55.80
2019-02-15T16:46:24.576Z,57.50
2019-02-15T16:51:29.182Z,58.20
2019-02-15T16:56:33.153Z,60.50
2019-02-15T17:01:36.810Z,62.30
2019-02-15T17:06:40.458Z,62.40
2019-02-15T17:11:44.165Z,64.60
2019-02-15T17:16:47.829Z,64.50
2019-02-15T17:21:51.418Z,64.80
2019-02-15T17:26:55.174Z,66.30
2019-02-15T17:31:58.963Z,68.90
2019-02-15T17:37:02.555Z,69.60
2019-02-15T17:42:06.299Z,69.70
2019-02-15T17:47:09.915Z,69.80
2019-02-15T17:52:13.503Z,69.20
2019-02-15T17:57:17.534Z,72.60
2019-02-15T18:02:21.122Z,73.50
2019-02-15T18:07:24.712Z,73.60
2019-02-15T18:12:28.712Z,73.70
2019-02-15T18:17:32.306Z,73.80
2019-02-15T18:22:36.226Z,73.80
2019-02-15T18:27:39.953Z,72.60
2019-02-15T18:32:43.690Z,73.50
2019-02-15T18:37:47.640Z,73.60
2019-02-15T18:42:51.307Z,73.60
2019-02-15T18:47:55.262Z,74.20
2019-02-15T18:52:58.920Z,74.20
2019-02-15T18:58:02.559Z,74.70
2019-02-15T19:03:06.406Z,75.60
2019-02-15T19:08:09.988Z,76.30
2019-02-15T19:13:13.647Z,75.60
2019-02-15T19:18:17.239Z,73.20
2019-02-15T19:23:20.917Z,74.20
2019-02-15T19:28:24.503Z,74.80
2019-02-15T19:33:28.157Z,75.20
2019-02-15T19:38:31.746Z,74.70
2019-02-15T19:43:35.773Z,74.70
2019-02-15T19:48:39.788Z,74.20
2019-02-15T19:53:43.382Z,75.50
2019-02-15T19:58:47.363Z,74.60
2019-02-15T20:03:50.955Z,74.70
2019-02-15T20:08:55.618Z,74.70
2019-02-15T20:14:00.091Z,74.60
2019-02-15T20:19:04.007Z,76.30
2019-02-15T20:24:07.597Z,75.90
2019-02-15T20:29:11.190Z,75.00
2019-02-15T20:34:15.054Z,74.90
2019-02-15T20:39:18.641Z,73.50
2019-02-15T20:44:22.234Z,75.40
2019-02-15T20:49:25.823Z,75.30
2019-02-15T20:54:29.414Z,75.10
2019-02-15T20:59:33.386Z,74.60
2019-02-15T21:04:37.326Z,74.40
2019-02-15T21:09:40.909Z,74.30
2019-02-15T21:14:44.498Z,74.30
2019-02-15T21:19:48.100Z,75.10
2019-02-15T21:24:51.990Z,72.90
2019-02-15T21:29:55.944Z,75.90
2019-02-15T21:34:59.607Z,72.40
2019-02-15T21:40:03.202Z,73.50
2019-02-15T21:45:09.441Z,73.80
2019-02-15T21:50:17.285Z,74.60
2019-02-15T21:55:18.554Z,74.30
2019-02-15T22:00:24.249Z,77.40
2019-02-15T22:05:27.911Z,75.90
2019-02-15T22:10:31.495Z,75.90
2019-02-15T22:15:35.121Z,75.20
2019-02-15T22:20:38.719Z,74.40
2019-02-15T22:25:42.323Z,74.40
2019-02-15T22:30:45.977Z,74.30
2019-02-15T22:35:49.922Z,73.80
2019-02-15T22:40:56.659Z,73.00
2019-02-15T22:46:00.652Z,72.20
2019-02-15T22:51:04.678Z,71.90
2019-02-15T22:56:08.553Z,70.90
2019-02-15T23:01:14.796Z,70.10
2019-02-15T23:06:18.688Z,71.30
2019-02-15T23:11:23.257Z,70.10
2019-02-15T23:16:26.842Z,70.20
2019-02-15T23:21:30.428Z,71.70
2019-02-15T23:26:34.035Z,71.90
2019-02-15T23:31:37.642Z,72.60
2019-02-15T23:36:41.575Z,75.10
2019-02-15T23:41:45.157Z,75.20
2019-02-15T23:46:48.861Z,74.30
2019-02-15T23:51:52.462Z,74.20
2019-02-15T23:56:56.057Z,73.30
